Time;durP1;ratioP1;P1;durP2;ratioP2;P2;SDS_P1;SDS_P2;PMS_P1;PMS_P2;Temp;Humidity;BMP_temperature;BMP_pressure;BME280_temperature;BME280_humidity;BME280_pressure;Samples;Min_cycle;Max_cycle;Signal;HPM_P1;HPM_P2
2022/03/06 00:02:11;;;;;;;47.65;23.05;;;5.10;99.90;;;;;;5037439;28;20171;-79
2022/03/06 00:04:37;;;;;;;52.28;22.67;;;5.10;99.90;;;;;;5055185;28;20316;-79
2022/03/06 00:07:03;;;;;;;52.22;23.70;;;5.10;99.90;;;;;;5055035;28;20632;-79
2022/03/06 00:09:29;;;;;;;51.83;22.35;;;5.10;99.90;;;;;;5037211;28;20174;-79
2022/03/06 00:11:55;;;;;;;48.35;22.40;;;5.00;99.90;;;;;;5054929;28;20250;-79
2022/03/06 00:14:20;;;;;;;51.35;22.35;;;5.10;99.90;;;;;;5054847;28;20494;-81
2022/03/06 00:16:46;;;;;;;50.03;23.45;;;5.10;99.90;;;;;;5054380;28;20254;-80
2022/03/06 00:19:12;;;;;;;44.70;20.73;;;5.20;99.90;;;;;;5055112;28;20163;-80
2022/03/06 00:21:39;;;;;;;51.83;22.92;;;5.10;99.90;;;;;;5037219;28;20162;-80
2022/03/06 00:24:05;;;;;;;44.95;21.25;;;5.00;99.90;;;;;;5054903;28;20168;-81
2022/03/06 00:26:31;;;;;;;49.28;22.40;;;4.80;99.90;;;;;;5054788;28;20191;-80
2022/03/06 00:28:57;;;;;;;45.90;22.52;;;4.90;99.90;;;;;;5054880;28;20163;-79
2022/03/06 00:31:25;;;;;;;55.25;24.15;;;4.90;99.90;;;;;;5036456;28;20267;-79
2022/03/06 00:33:51;;;;;;;50.67;22.95;;;4.80;99.90;;;;;;5054431;28;20207;-78
2022/03/06 00:36:20;;;;;;;55.85;24.25;;;4.90;99.90;;;;;;5036137;28;20184;-79
2022/03/06 00:38:46;;;;;;;49.92;23.05;;;4.80;99.90;;;;;;5035980;28;20178;-79
2022/03/06 00:41:13;;;;;;;48.33;23.15;;;4.80;99.90;;;;;;5054115;28;20167;-79
2022/03/06 00:43:39;;;;;;;52.30;23.13;;;4.80;99.90;;;;;;5036653;28;20179;-79
2022/03/06 00:46:05;;;;;;;59.42;22.77;;;4.70;99.90;;;;;;5054745;28;20179;-81
2022/03/06 00:48:31;;;;;;;47.28;23.63;;;4.80;99.90;;;;;;5054764;28;20528;-79
2022/03/06 00:50:56;;;;;;;42.65;20.83;;;4.80;99.90;;;;;;5053553;28;20171;-79
2022/03/06 00:53:22;;;;;;;47.72;22.65;;;4.90;99.90;;;;;;5053713;28;20207;-79
2022/03/06 00:55:49;;;;;;;43.58;20.80;;;4.60;99.90;;;;;;5054412;28;20189;-79
2022/03/06 00:58:15;;;;;;;49.28;21.88;;;4.60;99.90;;;;;;5053949;28;20201;-79
2022/03/06 01:00:43;;;;;;;54.20;23.27;;;4.80;99.90;;;;;;5053067;28;20620;-79
2022/03/06 01:03:10;;;;;;;50.83;22.83;;;5.00;99.90;;;;;;5053522;28;20497;-79
2022/03/06 01:05:37;;;;;;;53.42;23.38;;;5.00;99.90;;;;;;5035849;28;20183;-79
2022/03/06 01:08:04;;;;;;;45.53;21.98;;;4.60;99.90;;;;;;5035891;28;20564;-80
2022/03/06 01:10:30;;;;;;;44.65;22.65;;;4.60;99.90;;;;;;5053670;28;20169;-79
2022/03/06 01:12:56;;;;;;;52.20;23.95;;;4.40;99.90;;;;;;5053722;28;20187;-80
2022/03/06 01:15:22;;;;;;;51.47;22.10;;;4.50;99.90;;;;;;5054086;28;20191;-82
2022/03/06 01:17:48;;;;;;;50.90;22.20;;;4.50;99.90;;;;;;5054100;28;20190;-81
2022/03/06 01:20:14;;;;;;;52.95;23.60;;;4.70;99.90;;;;;;5036324;28;20175;-80
2022/03/06 01:22:39;;;;;;;66.53;23.13;;;4.70;99.90;;;;;;5036495;28;20330;-80
2022/03/06 01:25:06;;;;;;;53.42;22.58;;;4.60;99.90;;;;;;5053874;28;20210;-80
2022/03/06 01:27:32;;;;;;;46.97;23.10;;;4.60;99.90;;;;;;5053782;28;20224;-83
2022/03/06 01:29:58;;;;;;;54.35;24.52;;;4.60;99.90;;;;;;5053654;28;20171;-79
2022/03/06 01:32:23;;;;;;;56.58;24.08;;;4.50;99.90;;;;;;5053694;28;20174;-79
2022/03/06 01:34:49;;;;;;;50.67;24.05;;;4.50;99.90;;;;;;5053629;28;20683;-83
2022/03/06 01:37:15;;;;;;;54.10;22.70;;;4.30;99.90;;;;;;5053896;28;20190;-82
2022/03/06 01:39:41;;;;;;;44.30;22.10;;;4.10;99.90;;;;;;5053591;28;20221;-79
2022/03/06 01:42:07;;;;;;;61.92;23.08;;;4.30;99.90;;;;;;5053485;28;20187;-79
2022/03/06 01:44:33;;;;;;;47.40;20.92;;;4.10;99.90;;;;;;5035420;28;20175;-79
2022/03/06 01:46:58;;;;;;;51.42;20.67;;;3.80;99.90;;;;;;5053368;28;20182;-79
2022/03/06 01:49:24;;;;;;;50.22;21.98;;;4.00;99.90;;;;;;5035635;28;20179;-79
2022/03/06 01:51:50;;;;;;;50.33;22.30;;;4.10;99.90;;;;;;5053276;28;20171;-79
2022/03/06 01:54:15;;;;;;;45.65;20.77;;;3.90;99.90;;;;;;5052951;28;20253;-79
2022/03/06 01:56:42;;;;;;;49.22;22.98;;;3.90;99.90;;;;;;5053211;28;20513;-79
2022/03/06 01:59:10;;;;;;;45.78;23.17;;;3.90;99.90;;;;;;5052987;28;20178;-78
2022/03/06 02:01:35;;;;;;;50.13;21.88;;;3.80;99.90;;;;;;5053161;28;20166;-79
2022/03/06 02:04:01;;;;;;;50.45;23.10;;;4.00;99.90;;;;;;5052476;28;20543;-79
2022/03/06 02:06:27;;;;;;;48.83;23.00;;;4.10;99.90;;;;;;5035221;28;20187;-78
2022/03/06 02:08:53;;;;;;;45.72;21.67;;;4.10;99.90;;;;;;5052946;28;20949;-78
2022/03/06 02:11:22;;;;;;;50.42;23.55;;;4.20;99.90;;;;;;5035054;28;20171;-79
2022/03/06 02:13:47;;;;;;;44.40;21.05;;;4.10;99.90;;;;;;5034964;28;20806;-79
2022/03/06 02:16:13;;;;;;;51.03;22.45;;;4.00;99.90;;;;;;5034909;28;20194;-79
2022/03/06 02:18:39;;;;;;;45.60;22.52;;;3.90;99.90;;;;;;5052932;28;20164;-79
2022/03/06 02:21:09;;;;;;;43.25;21.75;;;3.80;99.90;;;;;;5035280;28;20167;-80
2022/03/06 02:23:35;;;;;;;45.40;20.98;;;3.80;99.90;;;;;;5052931;28;20171;-79
2022/03/06 02:26:00;;;;;;;48.78;22.17;;;3.90;99.90;;;;;;5052729;28;20187;-78
2022/03/06 02:28:26;;;;;;;56.55;23.23;;;3.90;99.90;;;;;;5052588;28;20250;-78
2022/03/06 02:30:54;;;;;;;54.72;22.80;;;4.00;99.90;;;;;;5052614;28;20214;-78
2022/03/06 02:33:20;;;;;;;50.03;23.15;;;4.00;99.90;;;;;;5052340;28;20244;-78
2022/03/06 02:35:45;;;;;;;47.13;22.35;;;4.20;99.90;;;;;;5052522;28;20192;-79
2022/03/06 02:38:11;;;;;;;50.03;22.65;;;4.20;99.90;;;;;;5052556;28;20246;-78
2022/03/06 02:40:40;;;;;;;48.35;21.90;;;4.10;99.90;;;;;;5034603;28;20608;-78
2022/03/06 02:43:07;;;;;;;54.70;22.40;;;4.10;99.90;;;;;;5052343;28;20604;-79
2022/03/06 02:45:33;;;;;;;51.85;22.40;;;4.20;99.90;;;;;;5052417;28;20270;-78
2022/03/06 02:47:59;;;;;;;43.55;22.48;;;4.00;99.90;;;;;;5034202;28;20626;-78
2022/03/06 02:50:27;;;;;;;42.10;20.50;;;4.00;99.90;;;;;;5052516;28;20167;-78
2022/03/06 02:52:54;;;;;;;43.22;20.92;;;3.80;99.90;;;;;;5052655;28;20199;-78
2022/03/06 02:55:20;;;;;;;46.90;20.88;;;3.70;99.90;;;;;;5052450;28;20274;-78
2022/03/06 02:57:46;;;;;;;46.75;22.48;;;3.50;99.90;;;;;;5052398;28;20348;-78
2022/03/06 03:00:14;;;;;;;43.95;21.52;;;3.50;99.90;;;;;;5034238;28;20174;-78
2022/03/06 03:02:41;;;;;;;44.35;21.45;;;3.40;99.90;;;;;;5052054;28;20191;-78
2022/03/06 03:05:08;;;;;;;42.53;20.45;;;3.30;99.90;;;;;;5051947;28;20193;-79
2022/03/06 03:07:36;;;;;;;44.40;20.88;;;3.30;99.90;;;;;;5052434;28;20636;-78
2022/03/06 03:10:02;;;;;;;45.10;21.13;;;3.40;99.90;;;;;;5052504;28;20535;-78
2022/03/06 03:12:28;;;;;;;50.33;21.65;;;3.50;99.90;;;;;;5052179;28;20155;-78
2022/03/06 03:14:54;;;;;;;37.15;19.92;;;3.50;99.90;;;;;;5035172;28;20214;-78
2022/03/06 03:17:19;;;;;;;50.60;23.85;;;3.40;99.90;;;;;;5056228;28;20156;-79
2022/03/06 03:19:45;;;;;;;48.95;21.95;;;3.60;99.90;;;;;;5038444;28;20174;-78
2022/03/06 03:22:10;;;;;;;45.17;20.80;;;3.30;99.90;;;;;;5056426;28;20297;-78
2022/03/06 03:24:36;;;;;;;41.35;19.38;;;3.40;99.90;;;;;;5055958;28;20756;-78
2022/03/06 03:27:01;;;;;;;43.70;21.83;;;3.30;99.90;;;;;;5056034;28;20257;-78
2022/03/06 03:29:27;;;;;;;35.58;20.33;;;3.10;99.90;;;;;;5038494;28;20190;-78
2022/03/06 03:31:53;;;;;;;43.15;21.08;;;3.20;99.90;;;;;;5055849;28;20217;-78
2022/03/06 03:34:18;;;;;;;45.28;20.25;;;3.30;99.90;;;;;;5055606;28;20205;-78
2022/03/06 03:36:44;;;;;;;50.42;21.65;;;3.20;99.90;;;;;;5055404;28;20597;-78
2022/03/06 03:39:10;;;;;;;44.63;20.00;;;3.20;99.90;;;;;;5055906;28;20628;-78
2022/03/06 03:41:35;;;;;;;42.87;20.33;;;3.30;99.90;;;;;;5055832;28;20692;-78
2022/03/06 03:44:02;;;;;;;46.42;20.95;;;3.20;99.90;;;;;;5055450;28;20195;-77
2022/03/06 03:46:27;;;;;;;44.55;20.77;;;3.20;99.90;;;;;;5055388;28;20232;-78
2022/03/06 03:48:53;;;;;;;44.13;20.98;;;3.20;99.90;;;;;;5055523;28;20577;-77
2022/03/06 03:51:19;;;;;;;39.33;20.38;;;3.10;99.90;;;;;;5055134;28;20576;-78
2022/03/06 03:53:44;;;;;;;46.67;18.95;;;2.90;99.90;;;;;;5055360;28;20217;-78
2022/03/06 03:56:10;;;;;;;36.67;18.20;;;2.60;99.90;;;;;;5055589;28;20236;-78
2022/03/06 03:58:35;;;;;;;40.15;19.50;;;2.60;99.90;;;;;;5037604;28;20526;-78
2022/03/06 04:01:01;;;;;;;40.65;19.23;;;2.60;99.90;;;;;;5055304;28;20636;-78
2022/03/06 04:03:27;;;;;;;40.22;19.05;;;2.80;99.90;;;;;;5055440;28;20232;-79
2022/03/06 04:05:53;;;;;;;42.42;20.25;;;2.80;99.90;;;;;;5037219;28;20221;-79
2022/03/06 04:08:19;;;;;;;40.33;19.83;;;2.80;99.90;;;;;;5055231;28;20191;-78
2022/03/06 04:10:45;;;;;;;52.28;19.98;;;2.90;99.90;;;;;;5055104;28;20242;-78
2022/03/06 04:13:11;;;;;;;40.63;19.40;;;2.90;99.90;;;;;;5054994;28;20203;-79
2022/03/06 04:15:37;;;;;;;37.22;18.60;;;2.90;99.90;;;;;;5054957;28;20201;-79
2022/03/06 04:18:03;;;;;;;46.28;20.35;;;3.00;99.90;;;;;;5055061;28;20670;-79
2022/03/06 04:20:30;;;;;;;32.47;18.40;;;2.70;99.90;;;;;;5055192;28;20174;-79
2022/03/06 04:22:56;;;;;;;38.75;18.60;;;2.70;99.90;;;;;;5054854;28;20254;-79
2022/03/06 04:25:22;;;;;;;42.13;19.67;;;2.90;99.90;;;;;;5054485;28;20191;-79
2022/03/06 04:27:48;;;;;;;38.58;20.00;;;3.00;99.90;;;;;;5054668;28;20171;-79
2022/03/06 04:30:13;;;;;;;35.92;18.02;;;3.10;99.90;;;;;;5054887;28;20178;-78
2022/03/06 04:32:39;;;;;;;33.75;19.15;;;3.10;99.90;;;;;;5054364;28;20240;-79
2022/03/06 04:35:05;;;;;;;37.47;18.75;;;2.70;99.90;;;;;;5036654;28;20341;-79
2022/03/06 04:37:31;;;;;;;33.95;17.52;;;2.90;99.90;;;;;;5037026;28;20199;-79
2022/03/06 04:39:57;;;;;;;37.03;18.57;;;2.80;99.90;;;;;;5054815;28;20705;-79
2022/03/06 04:42:22;;;;;;;43.78;20.08;;;2.80;99.90;;;;;;5036840;28;20194;-79
2022/03/06 04:44:48;;;;;;;41.03;19.42;;;3.00;99.90;;;;;;5054748;28;20697;-79
2022/03/06 04:47:14;;;;;;;34.20;17.63;;;3.10;99.90;;;;;;5036535;28;20179;-78
2022/03/06 04:49:40;;;;;;;36.97;18.03;;;2.90;99.90;;;;;;5054416;28;20163;-78
2022/03/06 04:52:06;;;;;;;36.40;18.07;;;2.80;99.90;;;;;;5054518;28;20217;-78
2022/03/06 04:54:32;;;;;;;37.72;18.90;;;2.80;99.90;;;;;;5054149;28;20207;-78
2022/03/06 04:56:57;;;;;;;39.43;18.07;;;2.70;99.90;;;;;;5054239;28;20167;-78
2022/03/06 04:59:23;;;;;;;39.45;17.88;;;2.50;99.90;;;;;;5054400;28;20195;-78
2022/03/06 05:01:49;;;;;;;33.72;17.23;;;2.70;99.90;;;;;;5054288;28;20195;-80
2022/03/06 05:04:14;;;;;;;34.35;16.10;;;2.80;99.90;;;;;;5036391;28;20635;-79
2022/03/06 05:06:40;;;;;;;37.63;18.63;;;2.80;99.90;;;;;;5054033;28;20237;-79
2022/03/06 05:09:06;;;;;;;36.17;18.98;;;2.70;99.90;;;;;;5054346;28;20168;-79
2022/03/06 05:11:33;;;;;;;38.43;18.13;;;2.60;99.90;;;;;;5053942;28;20167;-79
2022/03/06 05:13:58;;;;;;;38.33;18.43;;;2.70;99.90;;;;;;5053957;28;20231;-79
2022/03/06 05:16:24;;;;;;;36.63;17.47;;;2.60;99.90;;;;;;5036064;28;20237;-80
2022/03/06 05:18:49;;;;;;;38.47;17.27;;;2.50;99.90;;;;;;5036254;28;20171;-79
2022/03/06 05:21:15;;;;;;;35.05;18.50;;;2.60;99.90;;;;;;5035597;28;20190;-79
2022/03/06 05:23:41;;;;;;;34.40;18.42;;;2.50;99.90;;;;;;5053786;28;20241;-79
2022/03/06 05:26:07;;;;;;;36.43;16.90;;;2.50;99.90;;;;;;5053810;28;20194;-79
2022/03/06 05:28:33;;;;;;;30.33;16.63;;;2.60;99.90;;;;;;5054125;28;20213;-78
2022/03/06 05:30:59;;;;;;;33.10;17.10;;;2.70;99.90;;;;;;5053523;28;20764;-79
2022/03/06 05:33:24;;;;;;;38.30;18.00;;;2.30;99.90;;;;;;5053434;28;20218;-78
2022/03/06 05:35:50;;;;;;;38.03;16.43;;;2.30;99.90;;;;;;5053276;28;20175;-78
2022/03/06 05:38:16;;;;;;;33.80;16.73;;;2.20;99.90;;;;;;5052856;28;20175;-78
2022/03/06 05:40:42;;;;;;;33.23;15.93;;;2.30;99.90;;;;;;5035548;28;20171;-78
2022/03/06 05:43:07;;;;;;;37.53;17.43;;;2.20;99.90;;;;;;5053168;28;20186;-79
2022/03/06 05:45:33;;;;;;;29.03;17.23;;;2.10;99.90;;;;;;5035549;28;20195;-78
2022/03/06 05:47:58;;;;;;;30.03;15.83;;;1.90;99.90;;;;;;5035739;28;20198;-79
2022/03/06 05:50:24;;;;;;;30.97;17.37;;;1.70;99.90;;;;;;5053467;28;20652;-79
2022/03/06 05:52:50;;;;;;;36.63;17.73;;;1.70;99.90;;;;;;5053195;28;20170;-78
2022/03/06 05:55:16;;;;;;;37.63;17.33;;;1.70;99.90;;;;;;5053315;28;20266;-78
2022/03/06 05:57:45;;;;;;;27.13;16.17;;;1.80;99.90;;;;;;5053912;28;20206;-81
2022/03/06 06:00:16;;;;;;;39.80;18.10;;;1.90;99.90;;;;;;5053243;28;20229;-80
2022/03/06 06:02:41;;;;;;;32.17;16.83;;;2.00;99.90;;;;;;5053188;28;20202;-78
2022/03/06 06:05:08;;;;;;;35.20;16.30;;;2.00;99.90;;;;;;5052891;28;20218;-83
2022/03/06 06:07:34;;;;;;;34.40;16.13;;;1.80;99.90;;;;;;5053358;28;20175;-79
2022/03/06 06:10:01;;;;;;;38.57;18.10;;;1.80;99.90;;;;;;5053166;28;20577;-79
2022/03/06 06:12:27;;;;;;;38.87;17.80;;;1.80;99.90;;;;;;5052936;28;20197;-78
2022/03/06 06:14:53;;;;;;;35.13;17.00;;;1.90;99.90;;;;;;5052839;28;20218;-79
2022/03/06 06:17:19;;;;;;;41.63;17.10;;;1.90;99.90;;;;;;5052681;28;20173;-79
2022/03/06 06:19:44;;;;;;;38.30;17.60;;;2.00;99.90;;;;;;5052642;28;20183;-79
2022/03/06 06:22:10;;;;;;;40.43;15.53;;;2.20;99.90;;;;;;5052516;28;20213;-79
2022/03/06 06:24:36;;;;;;;32.80;16.40;;;2.20;99.90;;;;;;5054949;28;20198;-79
2022/03/06 06:27:02;;;;;;;35.40;17.77;;;2.20;99.90;;;;;;5058693;28;20177;-79
2022/03/06 06:29:28;;;;;;;36.17;16.87;;;2.10;99.90;;;;;;5052671;28;20171;-79
2022/03/06 06:31:54;;;;;;;31.43;16.87;;;2.20;99.90;;;;;;5052472;28;20167;-78
2022/03/06 06:34:20;;;;;;;30.10;16.17;;;2.10;99.90;;;;;;5056990;28;20214;-80
2022/03/06 06:36:47;;;;;;;28.77;15.97;;;2.10;99.90;;;;;;5034784;28;20640;-78
2022/03/06 06:39:13;;;;;;;31.30;17.50;;;1.90;99.90;;;;;;5052710;28;20167;-78
2022/03/06 06:41:39;;;;;;;35.53;17.17;;;1.80;99.90;;;;;;5052227;28;20170;-78
2022/03/06 06:44:06;;;;;;;47.97;16.87;;;1.60;99.90;;;;;;5052543;28;20721;-79
2022/03/06 06:46:32;;;;;;;40.43;16.07;;;1.50;99.90;;;;;;5055975;28;20245;-79
2022/03/06 06:48:58;;;;;;;30.63;15.83;;;1.60;99.90;;;;;;5052554;28;20159;-79
2022/03/06 06:51:24;;;;;;;31.40;16.33;;;1.50;99.90;;;;;;5052244;28;20181;-79
2022/03/06 06:53:49;;;;;;;29.80;15.90;;;1.70;99.90;;;;;;5052437;28;20207;-79
2022/03/06 06:56:15;;;;;;;34.13;16.03;;;1.70;99.90;;;;;;5052519;28;20731;-80
2022/03/06 06:58:41;;;;;;;29.37;15.10;;;1.80;99.90;;;;;;5053327;28;20171;-79
2022/03/06 07:01:07;;;;;;;30.37;16.30;;;1.80;99.90;;;;;;5052929;28;20210;-78
2022/03/06 07:03:32;;;;;;;26.50;15.23;;;1.80;99.90;;;;;;5058680;28;20172;-80
2022/03/06 07:05:58;;;;;;;34.97;17.77;;;1.70;99.90;;;;;;5067354;28;20183;-80
2022/03/06 07:08:24;;;;;;;32.10;17.53;;;1.60;99.90;;;;;;5056968;28;20557;-77
2022/03/06 07:10:50;;;;;;;46.13;16.13;;;1.70;99.90;;;;;;5053500;28;20189;-79
2022/03/06 07:13:16;;;;;;;28.00;15.90;;;2.00;99.90;;;;;;5051999;28;20281;-78
2022/03/06 07:15:42;;;;;;;31.43;16.80;;;2.00;99.90;;;;;;5052034;28;20198;-78
2022/03/06 07:18:07;;;;;;;29.93;17.30;;;2.00;99.90;;;;;;5052145;28;20171;-80
2022/03/06 07:20:33;;;;;;;38.57;17.83;;;2.00;99.90;;;;;;5051907;28;20170;-78
2022/03/06 07:22:59;;;;;;;37.90;18.17;;;2.00;99.90;;;;;;5051766;28;20206;-78
2022/03/06 07:25:27;;;;;;;30.23;16.47;;;2.00;99.90;;;;;;5051421;28;20217;-79
2022/03/06 07:27:53;;;;;;;27.27;15.40;;;2.00;99.90;;;;;;5033467;28;20181;-79
2022/03/06 07:30:19;;;;;;;35.23;16.23;;;2.00;99.90;;;;;;5051922;28;20567;-78
2022/03/06 07:32:50;;;;;;;29.97;15.50;;;2.10;99.90;;;;;;5051464;28;20217;-78
2022/03/06 07:35:18;;;;;;;30.77;16.83;;;2.00;99.90;;;;;;5051625;28;20195;-78
2022/03/06 07:37:44;;;;;;;28.57;15.83;;;2.00;99.90;;;;;;5051490;28;20504;-78
2022/03/06 07:40:13;;;;;;;29.10;15.07;;;2.00;99.90;;;;;;5051420;28;20177;-78
2022/03/06 07:42:39;;;;;;;36.03;15.40;;;2.10;99.90;;;;;;5051689;28;20479;-78
2022/03/06 07:45:06;;;;;;;31.83;16.10;;;2.10;99.90;;;;;;5051778;28;20217;-79
2022/03/06 07:47:31;;;;;;;25.17;15.27;;;2.20;99.90;;;;;;5051747;28;20168;-79
2022/03/06 07:49:57;;;;;;;28.10;14.73;;;2.20;99.90;;;;;;5051812;28;20517;-79
2022/03/06 07:52:23;;;;;;;29.07;16.33;;;2.30;99.90;;;;;;5051376;28;20250;-80
2022/03/06 07:54:49;;;;;;;37.65;16.00;;;2.50;99.90;;;;;;5051408;28;20559;-78
2022/03/06 07:57:14;;;;;;;33.45;16.48;;;2.60;99.90;;;;;;5051204;28;20175;-77
2022/03/06 07:59:40;;;;;;;24.63;14.70;;;2.70;99.90;;;;;;5033378;28;20178;-78
2022/03/06 08:02:05;;;;;;;30.58;15.52;;;2.80;99.90;;;;;;5053985;28;20599;-78
2022/03/06 08:04:31;;;;;;;30.08;15.45;;;2.80;99.90;;;;;;5037138;28;20209;-80
2022/03/06 08:06:57;;;;;;;29.25;14.57;;;2.70;99.90;;;;;;5054993;28;20221;-78
2022/03/06 08:09:25;;;;;;;23.77;14.07;;;2.60;99.90;;;;;;5054729;28;20181;-79
2022/03/06 08:11:51;;;;;;;28.67;16.67;;;2.60;99.90;;;;;;5055243;28;20555;-78
2022/03/06 08:14:17;;;;;;;32.47;15.73;;;2.60;99.90;;;;;;5055200;28;20210;-78
2022/03/06 08:16:43;;;;;;;22.00;14.95;;;2.60;99.90;;;;;;5054557;28;20167;-77
2022/03/06 08:19:08;;;;;;;27.25;15.45;;;2.70;99.90;;;;;;5054763;28;20175;-77
2022/03/06 08:21:34;;;;;;;36.13;15.83;;;2.80;99.90;;;;;;5054831;28;20641;-77
2022/03/06 08:24:00;;;;;;;22.33;13.60;;;2.80;99.90;;;;;;5054867;28;20214;-80
2022/03/06 08:26:26;;;;;;;28.17;15.77;;;2.80;99.90;;;;;;5054865;28;20194;-77
2022/03/06 08:28:52;;;;;;;26.38;14.40;;;2.80;99.90;;;;;;5054944;28;20254;-77
2022/03/06 08:31:18;;;;;;;29.27;15.57;;;2.90;99.90;;;;;;5054680;28;20173;-78
2022/03/06 08:33:44;;;;;;;22.30;14.27;;;2.90;99.90;;;;;;5054883;28;20203;-78
2022/03/06 08:36:09;;;;;;;29.23;15.20;;;2.90;99.90;;;;;;5054006;28;20183;-78
2022/03/06 08:38:35;;;;;;;26.00;14.70;;;2.90;99.90;;;;;;5054107;28;20222;-77
2022/03/06 08:41:01;;;;;;;25.45;15.18;;;2.90;99.90;;;;;;5054483;28;20164;-77
2022/03/06 08:43:26;;;;;;;25.73;15.63;;;3.20;99.90;;;;;;5054524;28;20642;-77
2022/03/06 08:45:52;;;;;;;24.90;14.48;;;3.20;99.90;;;;;;5054078;28;20290;-80
2022/03/06 08:48:17;;;;;;;30.23;15.63;;;3.30;99.90;;;;;;5054433;28;20175;-79
2022/03/06 08:50:43;;;;;;;26.55;15.57;;;3.30;99.90;;;;;;5054353;28;20163;-77
2022/03/06 08:53:09;;;;;;;26.95;14.60;;;3.50;99.90;;;;;;5054684;28;20286;-78
2022/03/06 08:55:34;;;;;;;24.73;13.52;;;3.40;99.90;;;;;;5053801;28;20205;-79
2022/03/06 08:58:00;;;;;;;26.77;15.18;;;3.40;99.90;;;;;;5035891;28;20178;-79
2022/03/06 09:00:25;;;;;;;28.50;16.05;;;3.40;99.90;;;;;;5054010;28;20513;-81
2022/03/06 09:02:51;;;;;;;27.08;14.48;;;3.60;99.90;;;;;;5036271;28;20616;-83
2022/03/06 09:05:19;;;;;;;26.17;14.40;;;3.70;99.90;;;;;;5054010;28;20683;-79
2022/03/06 09:07:44;;;;;;;25.52;14.23;;;3.80;99.90;;;;;;5053793;28;20167;-77
2022/03/06 09:10:10;;;;;;;30.17;14.38;;;3.70;99.90;;;;;;5052606;28;20171;-78
2022/03/06 09:12:35;;;;;;;21.77;13.98;;;3.80;99.90;;;;;;5051860;28;20206;-78
2022/03/06 09:15:01;;;;;;;25.98;15.65;;;3.80;99.90;;;;;;5054010;28;20715;-81
2022/03/06 09:17:27;;;;;;;27.17;14.45;;;3.90;99.90;;;;;;5053929;28;20163;-79
2022/03/06 09:19:52;;;;;;;22.85;14.95;;;3.90;99.90;;;;;;5054036;28;20205;-79
2022/03/06 09:22:18;;;;;;;28.98;15.10;;;4.00;99.90;;;;;;5053654;28;20171;-77
2022/03/06 09:24:44;;;;;;;29.23;14.80;;;4.10;99.90;;;;;;5053674;28;20183;-79
2022/03/06 09:27:09;;;;;;;28.38;14.52;;;4.20;99.90;;;;;;5053724;28;20193;-79
2022/03/06 09:29:35;;;;;;;33.33;15.23;;;4.10;99.90;;;;;;5053864;28;20191;-80
2022/03/06 09:32:01;;;;;;;28.13;14.93;;;4.00;99.90;;;;;;5053396;28;20171;-79
2022/03/06 09:34:26;;;;;;;28.60;14.40;;;4.10;99.90;;;;;;5035031;28;20679;-79
2022/03/06 09:36:53;;;;;;;26.25;15.77;;;4.20;99.90;;;;;;5053364;28;20242;-80
2022/03/06 09:39:19;;;;;;;21.35;14.10;;;4.40;99.90;;;;;;5053148;28;20647;-81
2022/03/06 09:41:49;;;;;;;34.83;15.00;;;4.40;99.90;;;;;;5053240;28;20171;-80
2022/03/06 09:44:14;;;;;;;23.52;13.85;;;4.30;99.90;;;;;;5053143;28;20274;-81
2022/03/06 09:46:41;;;;;;;23.55;13.05;;;4.40;99.90;;;;;;5053189;28;20262;-81
2022/03/06 09:49:08;;;;;;;20.63;13.55;;;4.50;99.90;;;;;;5052883;28;20289;-81
2022/03/06 09:51:35;;;;;;;23.92;14.25;;;4.50;99.90;;;;;;5053387;28;20190;-81
2022/03/06 09:54:01;;;;;;;22.00;13.48;;;4.50;99.90;;;;;;5053404;28;20210;-81
2022/03/06 09:56:27;;;;;;;25.70;14.15;;;4.50;99.90;;;;;;5035105;28;20199;-79
2022/03/06 09:58:52;;;;;;;26.63;15.52;;;4.60;99.90;;;;;;5052712;28;20175;-79
2022/03/06 10:01:18;;;;;;;21.30;13.30;;;4.60;99.90;;;;;;5052428;28;20246;-80
2022/03/06 10:03:44;;;;;;;27.35;15.15;;;4.50;99.90;;;;;;5034695;28;20707;-80
2022/03/06 10:06:10;;;;;;;20.70;13.43;;;4.60;99.90;;;;;;5053246;28;20195;-83
2022/03/06 10:08:36;;;;;;;23.80;13.95;;;4.60;99.90;;;;;;5035091;28;20167;-79
2022/03/06 10:11:09;;;;;;;20.92;13.85;;;4.70;99.90;;;;;;5052194;28;20658;-79
2022/03/06 10:13:38;;;;;;;21.30;14.05;;;4.70;99.90;;;;;;5052354;28;20207;-79
2022/03/06 10:16:13;;;;;;;26.63;14.10;;;4.90;99.90;;;;;;5052401;28;20213;-81
2022/03/06 10:18:50;;;;;;;19.38;13.32;;;5.00;99.90;;;;;;5052695;28;20171;-79
2022/03/06 10:21:39;;;;;;;22.23;13.20;;;5.00;99.90;;;;;;5052264;28;20163;-79
2022/03/06 10:24:06;;;;;;;22.08;13.23;;;5.00;99.90;;;;;;5052578;28;20169;-79
2022/03/06 10:26:34;;;;;;;25.83;14.32;;;4.90;99.90;;;;;;5052474;28;20186;-79
2022/03/06 10:29:02;;;;;;;19.85;13.88;;;5.00;99.90;;;;;;5052245;28;20171;-79
2022/03/06 10:31:31;;;;;;;23.17;13.43;;;5.10;99.90;;;;;;5034367;28;20177;-78
2022/03/06 10:34:11;;;;;;;20.40;13.43;;;5.20;99.90;;;;;;5052394;28;20205;-78
2022/03/06 10:36:42;;;;;;;22.50;12.82;;;5.30;99.90;;;;;;5052338;28;20260;-79
2022/03/06 10:39:11;;;;;;;20.13;13.00;;;5.30;99.90;;;;;;5052383;28;20672;-79
2022/03/06 10:41:39;;;;;;;22.52;14.05;;;5.40;99.90;;;;;;5052130;28;20654;-79
2022/03/06 10:44:08;;;;;;;21.50;13.30;;;5.60;99.90;;;;;;5052541;28;20659;-79
2022/03/06 10:46:34;;;;;;;21.80;12.82;;;5.60;99.90;;;;;;5034370;28;20182;-79
2022/03/06 10:49:14;;;;;;;20.52;12.90;;;5.60;99.90;;;;;;5052402;28;20160;-79
2022/03/06 10:51:45;;;;;;;20.23;14.30;;;5.70;99.90;;;;;;5052519;28;20171;-80
2022/03/06 10:54:13;;;;;;;20.20;12.88;;;5.60;99.90;;;;;;5052216;28;20199;-78
2022/03/06 10:56:39;;;;;;;27.02;13.80;;;5.80;99.90;;;;;;5052213;28;20559;-78
2022/03/06 10:59:06;;;;;;;18.83;13.13;;;5.80;99.90;;;;;;5052255;28;20173;-79
2022/03/06 11:01:32;;;;;;;21.67;13.75;;;5.90;99.90;;;;;;5052267;28;20220;-78
2022/03/06 11:04:00;;;;;;;23.05;12.80;;;5.90;99.90;;;;;;5051811;28;20178;-79
2022/03/06 11:06:26;;;;;;;24.90;13.77;;;5.80;99.90;;;;;;5052819;28;20194;-79
2022/03/06 11:08:53;;;;;;;19.90;12.90;;;6.00;99.90;;;;;;5034292;28;20170;-78
2022/03/06 11:11:20;;;;;;;20.75;14.05;;;6.10;99.90;;;;;;5052141;28;20523;-79
2022/03/06 11:13:46;;;;;;;16.80;12.07;;;5.90;99.90;;;;;;5052233;28;20291;-81
2022/03/06 11:16:11;;;;;;;22.92;13.45;;;5.80;99.90;;;;;;5052267;28;20241;-78
2022/03/06 11:18:38;;;;;;;16.83;12.25;;;5.90;99.90;;;;;;5052097;28;20171;-77
2022/03/06 11:21:04;;;;;;;23.38;12.82;;;6.10;99.90;;;;;;5052004;28;20639;-80
2022/03/06 11:23:51;;;;;;;30.80;13.98;;;6.40;99.90;;;;;;5051973;28;20171;-80
2022/03/06 11:26:25;;;;;;;13.90;11.25;;;6.30;99.90;;;;;;5051784;28;20187;-78
2022/03/06 11:28:51;;;;;;;20.60;12.23;;;6.30;99.90;;;;;;5052033;28;20173;-80
2022/03/06 11:31:17;;;;;;;25.95;12.98;;;6.40;99.90;;;;;;5051825;28;20171;-80
2022/03/06 11:33:55;;;;;;;32.70;12.05;;;6.50;99.90;;;;;;5051666;28;20203;-78
2022/03/06 11:36:26;;;;;;;17.80;11.65;;;6.50;99.90;;;;;;5053213;28;20187;-78
2022/03/06 11:38:54;;;;;;;19.48;13.15;;;6.60;99.90;;;;;;5055895;28;20171;-78
2022/03/06 11:41:20;;;;;;;25.23;11.48;;;6.60;99.90;;;;;;5056090;28;20262;-79
2022/03/06 11:43:50;;;;;;;17.75;11.30;;;6.60;99.90;;;;;;5055875;28;20183;-79
2022/03/06 11:46:18;;;;;;;16.92;12.05;;;6.50;99.90;;;;;;5055726;28;20195;-79
2022/03/06 11:48:46;;;;;;;17.55;10.68;;;6.60;99.90;;;;;;5055940;28;20202;-78
2022/03/06 11:51:17;;;;;;;15.13;11.30;;;6.80;99.90;;;;;;5055811;28;20636;-78
2022/03/06 11:53:53;;;;;;;13.73;10.27;;;6.80;99.90;;;;;;5055808;28;20671;-78
2022/03/06 11:56:31;;;;;;;17.48;11.73;;;6.90;99.90;;;;;;5055266;28;20303;-77
2022/03/06 11:58:57;;;;;;;16.45;11.68;;;6.80;99.90;;;;;;5055810;28;20175;-79
2022/03/06 12:01:28;;;;;;;14.48;10.48;;;6.70;99.90;;;;;;5055381;28;20169;-78
2022/03/06 12:03:54;;;;;;;14.50;10.05;;;6.80;99.90;;;;;;5037546;28;20175;-78
2022/03/06 12:06:20;;;;;;;13.57;9.70;;;7.10;99.90;;;;;;5055291;28;20191;-78
2022/03/06 12:08:47;;;;;;;16.55;10.13;;;7.00;99.90;;;;;;5037339;28;20168;-79
2022/03/06 12:11:13;;;;;;;19.98;10.55;;;7.00;99.90;;;;;;5055553;28;20171;-79
2022/03/06 12:13:39;;;;;;;13.80;9.05;;;7.00;99.90;;;;;;5055017;28;20207;-79
2022/03/06 12:16:08;;;;;;;11.90;9.32;;;6.90;99.90;;;;;;5055226;28;20681;-79
2022/03/06 12:18:34;;;;;;;14.98;9.35;;;7.00;99.90;;;;;;5055284;28;20642;-81
2022/03/06 12:21:16;;;;;;;13.20;8.57;;;7.00;99.90;;;;;;5055029;28;20187;-79
2022/03/06 12:23:42;;;;;;;12.02;9.15;;;7.10;99.90;;;;;;5054911;28;20662;-79
2022/03/06 12:26:08;;;;;;;12.13;9.10;;;7.10;99.90;;;;;;5055078;28;20308;-78
2022/03/06 12:28:39;;;;;;;11.80;9.45;;;7.20;99.90;;;;;;5037365;28;20254;-78
2022/03/06 12:31:29;;;;;;;9.93;8.63;;;7.20;99.90;;;;;;5037403;28;20167;-77
2022/03/06 12:33:54;;;;;;;13.13;9.35;;;7.30;99.90;;;;;;5037107;28;20197;-77
2022/03/06 12:36:24;;;;;;;10.27;9.07;;;7.20;99.90;;;;;;5055065;28;20270;-79